Time;durP1;ratioP1;P1;durP2;ratioP2;P2;SDS_P1;SDS_P2;PMS_P1;PMS_P2;Temp;Humidity;BMP_temperature;BMP_pressure;BME280_temperature;BME280_humidity;BME280_pressure;Samples;Min_cycle;Max_cycle;Signal;HPM_P1;HPM_P2
2024/04/14 00:00:41;;;;;;;1.45;0.95;;;18.10;96.40;;;;;;5433466;26;20446;-68
2024/04/14 00:03:08;;;;;;;1.00;0.90;;;18.00;96.50;;;;;;5431236;26;20009;-68
2024/04/14 00:05:34;;;;;;;3.08;1.15;;;18.00;96.70;;;;;;5434271;26;20013;-68
2024/04/14 00:08:00;;;;;;;1.80;0.98;;;17.90;96.80;;;;;;5433157;26;20003;-68
2024/04/14 00:10:26;;;;;;;1.00;0.90;;;17.90;97.10;;;;;;5436908;26;19995;-68
2024/04/14 00:12:52;;;;;;;2.53;0.98;;;17.90;96.70;;;;;;5437014;26;20009;-69
2024/04/14 00:15:19;;;;;;;2.55;1.10;;;17.80;96.40;;;;;;5437385;26;20624;-69
2024/04/14 00:17:44;;;;;;;1.90;1.15;;;17.80;96.70;;;;;;5434811;26;20075;-69
2024/04/14 00:20:12;;;;;;;5.82;1.50;;;17.80;97.10;;;;;;5437695;26;20003;-68
2024/04/14 00:22:41;;;;;;;1.45;1.15;;;17.80;96.50;;;;;;5437385;26;20084;-68
2024/04/14 00:25:07;;;;;;;2.42;1.10;;;17.80;96.60;;;;;;5434663;26;20408;-68
2024/04/14 00:27:32;;;;;;;1.10;1.00;;;17.80;96.40;;;;;;5437126;26;20509;-68
2024/04/14 00:29:58;;;;;;;3.72;1.00;;;17.80;96.90;;;;;;5436231;26;20000;-68
2024/04/14 00:32:24;;;;;;;1.45;1.13;;;17.80;97.00;;;;;;5435569;26;20079;-68
2024/04/14 00:34:51;;;;;;;1.20;1.10;;;17.80;97.30;;;;;;5436198;26;20010;-69
2024/04/14 00:37:17;;;;;;;1.75;1.27;;;17.70;97.50;;;;;;5437155;26;20027;-68
2024/04/14 00:39:43;;;;;;;1.20;1.10;;;17.70;97.40;;;;;;5436902;26;20916;-68
2024/04/14 00:42:09;;;;;;;1.33;1.13;;;17.70;96.70;;;;;;5437704;26;20073;-68
2024/04/14 00:44:35;;;;;;;1.90;1.02;;;17.70;97.20;;;;;;5435280;26;19999;-68
2024/04/14 00:47:01;;;;;;;1.17;1.02;;;17.70;97.40;;;;;;5433373;26;20003;-69
2024/04/14 00:49:28;;;;;;;1.10;1.00;;;17.70;97.40;;;;;;5434043;26;19994;-69
2024/04/14 00:51:55;;;;;;;2.00;1.13;;;17.70;97.60;;;;;;5432132;26;19995;-69
2024/04/14 00:54:22;;;;;;;1.63;0.90;;;17.80;96.80;;;;;;5427427;26;20417;-69
2024/04/14 00:56:47;;;;;;;2.50;1.08;;;17.70;97.10;;;;;;5433120;26;20017;-69
2024/04/14 00:59:17;;;;;;;1.88;1.00;;;17.80;97.10;;;;;;5427197;26;20215;-69
2024/04/14 01:01:43;;;;;;;5.03;1.20;;;17.80;97.30;;;;;;5435183;26;20010;-69
2024/04/14 01:04:09;;;;;;;3.50;1.23;;;17.80;97.40;;;;;;5430934;26;20096;-69
2024/04/14 01:06:35;;;;;;;4.93;1.15;;;17.80;97.00;;;;;;5434242;26;20019;-69
2024/04/14 01:09:03;;;;;;;1.63;1.13;;;17.80;97.10;;;;;;5424234;26;20041;-69
2024/04/14 01:11:29;;;;;;;1.65;1.23;;;17.80;97.20;;;;;;5427345;26;19999;-69
2024/04/14 01:13:55;;;;;;;5.05;1.52;;;17.80;97.00;;;;;;5423291;26;20539;-68
2024/04/14 01:16:21;;;;;;;1.92;1.20;;;17.80;97.40;;;;;;5431583;26;20003;-68
2024/04/14 01:18:46;;;;;;;1.58;1.20;;;17.90;97.30;;;;;;5432643;26;20010;-68
2024/04/14 01:21:12;;;;;;;2.90;1.15;;;17.90;97.00;;;;;;5433079;26;20088;-68
2024/04/14 01:23:38;;;;;;;1.40;1.25;;;17.90;97.00;;;;;;5434781;26;20010;-69
2024/04/14 01:26:04;;;;;;;3.35;1.50;;;17.90;97.20;;;;;;5434803;26;19998;-69
2024/04/14 01:28:30;;;;;;;1.60;1.40;;;17.90;97.50;;;;;;5432695;26;20025;-69
2024/04/14 01:30:56;;;;;;;2.40;1.20;;;18.00;97.40;;;;;;5431123;26;20849;-69
2024/04/14 01:33:22;;;;;;;3.42;1.90;;;18.00;97.30;;;;;;5433552;26;20021;-68
2024/04/14 01:35:48;;;;;;;2.38;1.40;;;17.90;97.20;;;;;;5431245;26;21094;-68
2024/04/14 01:38:14;;;;;;;1.70;1.30;;;17.90;97.00;;;;;;5432283;26;20021;-68
2024/04/14 01:40:40;;;;;;;3.83;1.30;;;17.90;97.30;;;;;;5434846;26;19998;-68
2024/04/14 01:43:06;;;;;;;1.35;1.13;;;17.90;97.20;;;;;;5428250;26;20030;-69
2024/04/14 01:45:31;;;;;;;4.05;1.52;;;18.00;97.10;;;;;;5436683;26;20114;-69
2024/04/14 01:47:57;;;;;;;2.80;1.60;;;18.00;97.10;;;;;;5433510;26;20015;-69
2024/04/14 01:50:23;;;;;;;2.65;1.27;;;18.10;97.10;;;;;;5432045;26;20814;-70
2024/04/14 01:52:49;;;;;;;3.97;1.27;;;18.10;97.30;;;;;;5428045;26;20000;-70
2024/04/14 01:55:15;;;;;;;2.42;1.40;;;18.10;97.40;;;;;;5426554;26;20003;-70
2024/04/14 01:57:40;;;;;;;2.78;1.33;;;18.10;97.40;;;;;;5432461;26;20003;-68
2024/04/14 02:00:08;;;;;;;1.30;1.20;;;18.00;97.20;;;;;;5431454;26;20060;-68
2024/04/14 02:02:37;;;;;;;2.70;1.35;;;18.00;97.30;;;;;;5432594;26;20015;-68
2024/04/14 02:05:03;;;;;;;4.05;1.60;;;18.00;97.50;;;;;;5426930;26;20096;-68
2024/04/14 02:07:29;;;;;;;2.92;1.50;;;18.00;97.80;;;;;;5432754;26;20661;-69
2024/04/14 02:09:54;;;;;;;2.75;1.50;;;18.00;97.80;;;;;;5431369;26;20068;-68
2024/04/14 02:12:20;;;;;;;2.47;1.38;;;18.00;97.40;;;;;;5433336;26;19995;-69
2024/04/14 02:14:46;;;;;;;3.22;1.50;;;18.00;97.70;;;;;;5423161;26;20927;-69
2024/04/14 02:17:11;;;;;;;2.20;1.45;;;18.00;97.80;;;;;;5433959;26;21084;-68
2024/04/14 02:19:37;;;;;;;3.22;1.52;;;18.00;97.90;;;;;;5429074;26;20009;-68
2024/04/14 02:22:03;;;;;;;2.45;1.50;;;18.00;97.90;;;;;;5432932;26;20081;-68
2024/04/14 02:24:32;;;;;;;3.40;1.77;;;18.00;97.70;;;;;;5427658;26;20014;-67
2024/04/14 02:26:59;;;;;;;2.78;1.60;;;18.00;97.90;;;;;;5432136;26;20113;-67
2024/04/14 02:29:25;;;;;;;1.55;1.45;;;18.00;98.10;;;;;;5429033;26;20009;-67
2024/04/14 02:31:51;;;;;;;1.83;1.40;;;18.00;98.10;;;;;;5430289;26;20054;-67
2024/04/14 02:34:16;;;;;;;2.15;1.67;;;18.00;98.30;;;;;;5426916;26;20010;-68
2024/04/14 02:36:42;;;;;;;3.72;1.83;;;17.90;98.50;;;;;;5433479;26;20048;-67
2024/04/14 02:39:08;;;;;;;4.95;1.52;;;17.90;98.60;;;;;;5437700;26;20011;-67
2024/04/14 02:41:35;;;;;;;1.48;1.38;;;17.90;98.70;;;;;;5436063;26;20002;-67
2024/04/14 02:44:02;;;;;;;1.58;1.45;;;17.90;98.70;;;;;;5432382;26;20005;-68
2024/04/14 02:46:28;;;;;;;2.22;1.50;;;17.90;98.80;;;;;;5432736;26;20018;-67
2024/04/14 02:48:54;;;;;;;2.58;1.30;;;18.00;98.80;;;;;;5431964;26;20011;-68
2024/04/14 02:51:20;;;;;;;1.50;1.40;;;18.00;98.90;;;;;;5433618;26;20006;-67
2024/04/14 02:53:46;;;;;;;2.13;1.38;;;18.00;99.10;;;;;;5431637;26;19998;-67
2024/04/14 02:56:12;;;;;;;2.35;1.60;;;18.00;99.10;;;;;;5429337;26;19999;-67
2024/04/14 02:58:38;;;;;;;2.78;1.45;;;17.90;99.20;;;;;;5432540;26;20327;-67
2024/04/14 03:01:04;;;;;;;1.77;1.38;;;17.90;99.30;;;;;;5428721;26;20416;-67
2024/04/14 03:03:30;;;;;;;3.08;1.95;;;17.90;99.30;;;;;;5430957;26;19995;-67
2024/04/14 03:06:03;;;;;;;3.53;1.60;;;17.80;99.40;;;;;;5429439;26;20119;-68
2024/04/14 03:08:29;;;;;;;2.10;1.67;;;17.80;99.60;;;;;;5428491;26;20014;-68
2024/04/14 03:10:56;;;;;;;2.67;1.58;;;17.70;99.80;;;;;;5428908;26;19999;-68
2024/04/14 03:13:22;;;;;;;3.22;1.70;;;17.70;99.90;;;;;;5427166;26;20508;-67
2024/04/14 03:15:49;;;;;;;2.97;1.48;;;17.60;99.90;;;;;;5432722;26;20018;-67
2024/04/14 03:18:15;;;;;;;2.13;1.77;;;17.60;99.90;;;;;;5432909;26;20394;-66
2024/04/14 03:20:40;;;;;;;3.45;2.10;;;17.60;99.90;;;;;;5425478;26;20048;-67
2024/04/14 03:23:06;;;;;;;6.45;2.50;;;17.60;99.90;;;;;;5431455;26;20454;-67
2024/04/14 03:25:32;;;;;;;2.42;1.67;;;17.60;99.90;;;;;;5421017;26;20451;-67
2024/04/14 03:27:58;;;;;;;5.85;2.17;;;17.60;99.90;;;;;;5432100;26;20010;-67
2024/04/14 03:30:24;;;;;;;5.72;2.00;;;17.60;99.90;;;;;;5429007;26;19999;-67
2024/04/14 03:32:51;;;;;;;2.97;1.90;;;17.60;99.90;;;;;;5433015;26;20006;-67
2024/04/14 03:35:16;;;;;;;1.83;1.52;;;17.60;99.90;;;;;;5436087;26;20001;-67
2024/04/14 03:37:42;;;;;;;3.65;1.77;;;17.60;99.90;;;;;;5432255;26;20002;-67
2024/04/14 03:40:09;;;;;;;5.03;2.20;;;17.60;99.90;;;;;;5423825;26;20019;-67
2024/04/14 03:42:35;;;;;;;4.00;2.47;;;17.70;99.90;;;;;;5433547;26;19998;-67
2024/04/14 03:45:08;;;;;;;2.80;2.03;;;17.70;99.90;;;;;;5424475;26;20089;-68
2024/04/14 03:47:34;;;;;;;5.55;2.00;;;17.60;99.90;;;;;;5432791;26;19999;-67
2024/04/14 03:50:05;;;;;;;3.05;2.00;;;17.70;99.90;;;;;;5429281;26;20367;-67
2024/04/14 03:52:31;;;;;;;3.72;1.90;;;17.70;99.90;;;;;;5433430;26;19999;-67
2024/04/14 03:54:57;;;;;;;3.28;2.13;;;17.60;99.90;;;;;;5426921;26;20022;-67
2024/04/14 03:57:25;;;;;;;6.18;2.00;;;17.60;99.90;;;;;;5432172;26;20011;-67
2024/04/14 03:59:51;;;;;;;3.00;2.05;;;17.60;99.90;;;;;;5425129;26;20691;-67
2024/04/14 04:02:17;;;;;;;3.85;2.10;;;17.60;99.90;;;;;;5434111;26;20002;-67
2024/04/14 04:04:43;;;;;;;2.55;2.03;;;17.60;99.90;;;;;;5434453;26;20018;-67
2024/04/14 04:07:09;;;;;;;3.85;1.90;;;17.60;99.90;;;;;;5432605;26;20007;-67
2024/04/14 04:09:34;;;;;;;2.65;2.42;;;17.60;99.90;;;;;;5433525;26;19999;-68
2024/04/14 04:12:02;;;;;;;4.13;1.65;;;17.60;99.90;;;;;;5431246;26;20002;-67
2024/04/14 04:14:28;;;;;;;2.75;2.10;;;17.60;99.90;;;;;;5433133;26;20567;-67
2024/04/14 04:16:54;;;;;;;4.38;2.60;;;17.60;99.90;;;;;;5427604;26;19995;-67
2024/04/14 04:19:19;;;;;;;4.85;2.40;;;17.60;99.90;;;;;;5425600;26;20566;-67
2024/04/14 04:21:45;;;;;;;3.53;2.13;;;17.60;99.90;;;;;;5426003;26;20323;-68
2024/04/14 04:24:11;;;;;;;4.40;2.22;;;17.60;99.90;;;;;;5429393;26;20008;-68
2024/04/14 04:26:37;;;;;;;6.07;2.95;;;17.60;99.90;;;;;;5429403;26;20469;-67
2024/04/14 04:29:02;;;;;;;4.15;2.55;;;17.50;99.90;;;;;;5430471;26;20000;-69
2024/04/14 04:31:28;;;;;;;5.82;2.53;;;17.50;99.90;;;;;;5434916;26;20023;-68
2024/04/14 04:33:54;;;;;;;6.45;2.50;;;17.50;99.90;;;;;;5432058;26;20003;-68
2024/04/14 04:36:20;;;;;;;10.70;2.25;;;17.40;99.90;;;;;;5435202;26;20007;-68
2024/04/14 04:38:45;;;;;;;3.00;2.30;;;17.50;99.90;;;;;;5430615;26;20221;-68
2024/04/14 04:41:11;;;;;;;4.35;2.60;;;17.50;99.90;;;;;;5425703;26;20014;-68
2024/04/14 04:43:39;;;;;;;4.32;2.28;;;17.50;99.90;;;;;;5431590;26;20014;-67
2024/04/14 04:46:05;;;;;;;6.13;2.50;;;17.50;99.70;;;;;;5427959;26;20000;-67
2024/04/14 04:48:30;;;;;;;8.13;2.45;;;17.50;99.60;;;;;;5432536;26;20013;-67
2024/04/14 04:50:56;;;;;;;5.57;1.95;;;17.50;99.30;;;;;;5428372;26;20528;-67
2024/04/14 04:53:22;;;;;;;4.05;1.60;;;17.50;98.70;;;;;;5434199;26;20003;-66
2024/04/14 04:55:48;;;;;;;5.10;1.90;;;17.50;98.50;;;;;;5427217;26;20005;-67
2024/04/14 04:58:14;;;;;;;6.85;1.88;;;17.50;98.10;;;;;;5439977;26;20010;-67
2024/04/14 05:00:41;;;;;;;4.60;1.63;;;17.50;98.00;;;;;;5429084;26;19994;-67
2024/04/14 05:03:07;;;;;;;3.95;1.80;;;17.40;98.00;;;;;;5439444;26;20859;-66
2024/04/14 05:05:32;;;;;;;3.38;1.83;;;17.40;97.90;;;;;;5436514;26;20026;-67
2024/04/14 05:07:58;;;;;;;3.88;1.30;;;17.50;97.50;;;;;;5435461;26;20079;-67
2024/04/14 05:10:25;;;;;;;4.78;1.88;;;17.50;97.50;;;;;;5427149;26;20003;-67
2024/04/14 05:12:51;;;;;;;3.30;1.27;;;17.40;97.40;;;;;;5436372;26;20813;-67
2024/04/14 05:15:16;;;;;;;3.65;1.35;;;17.40;97.50;;;;;;5428315;26;19995;-67
2024/04/14 05:17:42;;;;;;;3.08;1.33;;;17.40;97.20;;;;;;5439346;26;20075;-67
2024/04/14 05:20:08;;;;;;;2.08;1.20;;;17.50;97.20;;;;;;5428889;26;20084;-67
2024/04/14 05:22:34;;;;;;;5.32;1.40;;;17.50;97.50;;;;;;5437513;26;19999;-67
2024/04/14 05:24:59;;;;;;;2.80;1.17;;;17.40;97.50;;;;;;5429086;26;20466;-66
2024/04/14 05:27:25;;;;;;;4.25;1.40;;;17.40;97.30;;;;;;5436357;26;20034;-67
2024/04/14 05:29:51;;;;;;;4.30;1.45;;;17.40;97.50;;;;;;5435585;26;20733;-68
2024/04/14 05:32:17;;;;;;;3.72;1.27;;;17.40;97.70;;;;;;5432110;26;19999;-67
2024/04/14 05:34:43;;;;;;;3.25;1.75;;;17.50;97.80;;;;;;5437489;26;20028;-67
2024/04/14 05:37:09;;;;;;;2.80;1.40;;;17.50;97.80;;;;;;5428464;26;20005;-67
2024/04/14 05:39:36;;;;;;;9.27;2.38;;;17.60;98.10;;;;;;5432077;26;20565;-67
2024/04/14 05:42:03;;;;;;;1.98;1.35;;;17.60;97.50;;;;;;5429253;26;20028;-67
2024/04/14 05:44:32;;;;;;;1.70;1.15;;;17.60;97.60;;;;;;5429011;26;20006;-67
2024/04/14 05:46:58;;;;;;;4.55;2.17;;;17.50;97.90;;;;;;5431828;26;20013;-67
2024/04/14 05:49:24;;;;;;;5.40;1.83;;;17.60;98.30;;;;;;5432014;26;20497;-67
2024/04/14 05:51:50;;;;;;;3.63;1.80;;;17.50;98.60;;;;;;5435451;26;19995;-67
2024/04/14 05:54:16;;;;;;;2.83;1.30;;;17.60;98.10;;;;;;5434943;26;20954;-67
2024/04/14 05:56:42;;;;;;;2.75;1.40;;;17.60;98.10;;;;;;5435740;26;19994;-67
2024/04/14 05:59:08;;;;;;;5.93;1.95;;;17.70;98.10;;;;;;5432951;26;20058;-67
2024/04/14 06:01:33;;;;;;;3.92;1.40;;;17.70;97.90;;;;;;5430243;26;19995;-67
2024/04/14 06:04:00;;;;;;;3.72;1.20;;;17.80;97.90;;;;;;5435535;26;20477;-67
2024/04/14 06:06:25;;;;;;;4.93;1.80;;;17.80;97.80;;;;;;5429018;26;19991;-67
2024/04/14 06:08:52;;;;;;;3.63;1.85;;;17.90;97.40;;;;;;5434583;26;20014;-67
2024/04/14 06:11:18;;;;;;;5.72;1.80;;;17.90;97.30;;;;;;5431230;26;20012;-67
2024/04/14 06:13:44;;;;;;;2.58;1.42;;;18.00;97.40;;;;;;5432684;26;20013;-68
2024/04/14 06:16:10;;;;;;;4.45;1.35;;;18.10;97.20;;;;;;5437942;26;20010;-68
2024/04/14 06:18:36;;;;;;;5.75;2.15;;;18.10;97.10;;;;;;5434316;26;20067;-68
2024/04/14 06:21:03;;;;;;;3.85;1.90;;;18.20;97.10;;;;;;5426382;26;19998;-68
2024/04/14 06:23:29;;;;;;;4.32;1.83;;;18.30;97.10;;;;;;5432340;26;19999;-68
2024/04/14 06:25:55;;;;;;;3.95;1.27;;;18.40;96.90;;;;;;5438609;26;19999;-68
2024/04/14 06:28:21;;;;;;;2.17;1.15;;;18.50;96.90;;;;;;5434563;26;20045;-67
2024/04/14 06:30:46;;;;;;;6.00;1.83;;;18.60;96.80;;;;;;5437961;26;20064;-68
2024/04/14 06:33:12;;;;;;;4.93;1.80;;;18.60;97.30;;;;;;5438153;26;20446;-68
2024/04/14 06:35:38;;;;;;;5.40;2.10;;;18.60;96.90;;;;;;5435446;26;20827;-68
2024/04/14 06:38:06;;;;;;;4.07;1.55;;;18.50;96.80;;;;;;5434068;26;20606;-68
2024/04/14 06:40:31;;;;;;;7.25;1.95;;;18.50;96.50;;;;;;5434766;26;19995;-68
2024/04/14 06:42:57;;;;;;;4.95;1.55;;;18.40;95.90;;;;;;5435566;26;19999;-69
2024/04/14 06:45:23;;;;;;;3.25;1.70;;;18.30;96.10;;;;;;5430842;26;20747;-68
2024/04/14 06:47:49;;;;;;;4.72;1.60;;;18.30;96.10;;;;;;5429215;26;20438;-68
2024/04/14 06:50:14;;;;;;;4.63;1.40;;;18.20;96.20;;;;;;5430247;26;20045;-69
2024/04/14 06:52:40;;;;;;;5.20;1.50;;;18.10;96.30;;;;;;5431424;26;20006;-68
2024/04/14 06:55:06;;;;;;;1.75;1.30;;;18.10;96.10;;;;;;5429901;26;20522;-68
2024/04/14 06:57:32;;;;;;;3.60;1.50;;;18.00;96.10;;;;;;5433952;26;19994;-68
2024/04/14 06:59:58;;;;;;;2.28;1.05;;;18.00;96.00;;;;;;5420670;26;20002;-69
2024/04/14 07:02:23;;;;;;;5.03;1.52;;;18.00;96.20;;;;;;5432172;26;20003;-69
2024/04/14 07:04:49;;;;;;;2.63;1.38;;;17.90;95.90;;;;;;5431650;26;19998;-69
2024/04/14 07:07:15;;;;;;;2.88;0.98;;;17.90;95.50;;;;;;5433231;26;20002;-69
2024/04/14 07:09:41;;;;;;;1.48;0.82;;;17.80;94.60;;;;;;5431437;26;19998;-66
2024/04/14 07:12:07;;;;;;;3.63;1.20;;;17.70;94.50;;;;;;5420834;26;20007;-69
2024/04/14 07:14:34;;;;;;;8.18;1.23;;;17.70;94.60;;;;;;5431504;26;20734;-69
2024/04/14 07:16:59;;;;;;;4.32;0.85;;;17.60;93.90;;;;;;5421391;26;19999;-69
2024/04/14 07:19:25;;;;;;;2.60;1.00;;;17.50;93.50;;;;;;5431113;26;20000;-69
2024/04/14 07:21:51;;;;;;;5.25;0.85;;;17.60;93.80;;;;;;5429076;26;19995;-69
2024/04/14 07:24:16;;;;;;;3.50;0.70;;;17.70;93.70;;;;;;5431765;26;20076;-69
2024/04/14 07:26:42;;;;;;;3.55;0.65;;;17.80;93.10;;;;;;5424476;26;20064;-69
2024/04/14 07:29:08;;;;;;;3.90;0.98;;;17.80;93.40;;;;;;5431415;26;20014;-69
2024/04/14 07:31:34;;;;;;;8.60;1.20;;;17.80;93.70;;;;;;5435150;26;20068;-70
2024/04/14 07:34:00;;;;;;;1.85;0.90;;;17.90;93.70;;;;;;5434417;26;20466;-69
2024/04/14 07:36:27;;;;;;;7.43;1.70;;;17.90;93.90;;;;;;5432191;26;19995;-69
2024/04/14 07:38:52;;;;;;;3.88;1.42;;;17.90;94.10;;;;;;5430995;26;19995;-69
2024/04/14 07:41:21;;;;;;;2.00;0.88;;;18.00;94.40;;;;;;5434238;26;20060;-67
2024/04/14 07:43:47;;;;;;;3.67;1.20;;;18.10;93.90;;;;;;5429175;26;19999;-67
2024/04/14 07:46:14;;;;;;;6.57;0.90;;;18.30;94.20;;;;;;5424262;26;19999;-68
2024/04/14 07:48:40;;;;;;;5.05;1.25;;;18.50;94.20;;;;;;5429879;26;20007;-68
2024/04/14 07:51:05;;;;;;;1.27;0.82;;;18.70;93.70;;;;;;5428921;26;20009;-67
2024/04/14 07:53:31;;;;;;;3.42;0.95;;;18.90;92.50;;;;;;5433165;26;20141;-67
2024/04/14 07:55:57;;;;;;;2.53;0.85;;;19.10;92.30;;;;;;5429774;26;20003;-66
2024/04/14 07:58:24;;;;;;;2.03;1.05;;;19.10;90.50;;;;;;5440152;26;20010;-66
2024/04/14 08:00:50;;;;;;;1.85;0.68;;;19.10;90.40;;;;;;5424933;26;20058;-66
2024/04/14 08:03:16;;;;;;;2.20;0.65;;;19.10;90.20;;;;;;5431990;26;20014;-67
2024/04/14 08:05:43;;;;;;;2.70;0.60;;;19.10;90.10;;;;;;5426768;26;20054;-67
2024/04/14 08:08:09;;;;;;;2.00;0.70;;;19.10;90.50;;;;;;5428754;26;20015;-67
2024/04/14 08:10:35;;;;;;;2.60;0.68;;;19.00;90.80;;;;;;5426616;26;20466;-67
2024/04/14 08:13:02;;;;;;;1.70;0.70;;;18.90;91.00;;;;;;5427417;26;20025;-67
2024/04/14 08:15:27;;;;;;;4.10;0.70;;;18.90;91.40;;;;;;5427636;26;20011;-67
2024/04/14 08:17:57;;;;;;;1.77;0.70;;;18.80;91.00;;;;;;5429704;26;20461;-67
2024/04/14 08:20:25;;;;;;;2.40;0.70;;;18.90;90.50;;;;;;5427276;26;20004;-67
2024/04/14 08:22:51;;;;;;;3.55;0.50;;;19.10;89.80;;;;;;5430361;26;20003;-67
2024/04/14 08:25:17;;;;;;;1.42;0.80;;;19.20;90.40;;;;;;5435021;26;20016;-67
2024/04/14 08:27:43;;;;;;;2.00;0.75;;;19.30;90.10;;;;;;5434231;26;20002;-67
2024/04/14 08:30:09;;;;;;;5.25;1.15;;;19.40;90.20;;;;;;5428937;26;20000;-67
2024/04/14 08:32:35;;;;;;;3.25;0.77;;;19.60;88.40;;;;;;5435549;26;20014;-69
2024/04/14 08:35:02;;;;;;;2.17;0.80;;;19.90;88.40;;;;;;5430618;26;20011;-67
2024/04/14 08:37:28;;;;;;;3.83;0.88;;;20.10;89.20;;;;;;5434439;26;20005;-66
2024/04/14 08:39:54;;;;;;;2.92;0.40;;;20.30;86.90;;;;;;5426840;26;20011;-66
2024/04/14 08:42:21;;;;;;;2.28;0.73;;;20.30;78.90;;;;;;5431030;26;20060;-68
2024/04/14 08:44:48;;;;;;;2.05;0.60;;;20.10;77.20;;;;;;5432831;26;20064;-66
2024/04/14 08:47:17;;;;;;;0.50;0.30;;;20.10;79.20;;;;;;5437482;26;19995;-66
2024/04/14 08:49:43;;;;;;;3.40;0.35;;;20.00;79.00;;;;;;5428453;26;20003;-68
2024/04/14 08:52:10;;;;;;;1.85;0.52;;;20.00;79.40;;;;;;5430336;26;19990;-68
2024/04/14 08:54:36;;;;;;;2.25;0.40;;;20.00;78.40;;;;;;5435513;26;20003;-68
2024/04/14 08:57:06;;;;;;;2.83;0.40;;;20.00;79.80;;;;;;5431650;26;20039;-68
2024/04/14 08:59:33;;;;;;;4.40;0.52;;;20.10;79.70;;;;;;5434368;26;20003;-68
2024/04/14 09:02:01;;;;;;;3.25;0.43;;;20.30;75.60;;;;;;5432999;26;20018;-68
2024/04/14 09:04:27;;;;;;;2.50;0.40;;;20.50;74.50;;;;;;5435215;26;20007;-68
2024/04/14 09:06:53;;;;;;;2.25;0.45;;;20.60;72.20;;;;;;5437132;26;20506;-68
2024/04/14 09:09:19;;;;;;;3.55;0.93;;;20.60;74.20;;;;;;5433404;26;20032;-68
2024/04/14 09:11:52;;;;;;;1.10;0.40;;;20.70;72.70;;;;;;5435370;26;20532;-68
2024/04/14 09:14:18;;;;;;;0.68;0.35;;;20.70;71.10;;;;;;5433331;26;20405;-69
2024/04/14 09:16:45;;;;;;;0.68;0.15;;;20.60;70.30;;;;;;5436208;26;20000;-68
2024/04/14 09:19:10;;;;;;;4.25;0.35;;;20.50;71.20;;;;;;5435853;26;19995;-68
2024/04/14 09:21:36;;;;;;;4.20;0.70;;;20.40;67.90;;;;;;5433228;26;20003;-69
2024/04/14 09:24:02;;;;;;;6.05;0.70;;;20.40;69.00;;;;;;5434850;26;19998;-68
2024/04/14 09:26:28;;;;;;;1.02;0.40;;;20.50;69.60;;;;;;5428553;26;20007;-68
2024/04/14 09:29:04;;;;;;;1.85;0.40;;;20.50;70.20;;;;;;5428447;26;20766;-68
2024/04/14 09:31:30;;;;;;;3.28;0.57;;;20.50;71.40;;;;;;5431940;26;20648;-68
2024/04/14 09:33:56;;;;;;;7.20;0.60;;;20.40;72.10;;;;;;5426900;26;20261;-67
2024/04/14 09:36:26;;;;;;;1.92;0.45;;;20.40;71.60;;;;;;5432669;26;20005;-67
2024/04/14 09:38:53;;;;;;;3.20;0.50;;;20.40;71.50;;;;;;5430882;26;20468;-66
2024/04/14 09:41:22;;;;;;;1.20;0.30;;;20.50;73.00;;;;;;5433615;26;19999;-67
2024/04/14 09:43:53;;;;;;;0.75;0.50;;;20.70;72.00;;;;;;5431712;26;19995;-67
2024/04/14 09:46:20;;;;;;;1.20;0.43;;;20.80;71.40;;;;;;5435344;26;19999;-67
2024/04/14 09:48:47;;;;;;;1.00;0.50;;;21.00;72.90;;;;;;5430847;26;20279;-67
2024/04/14 09:51:14;;;;;;;3.03;0.50;;;21.10;66.70;;;;;;5433050;26;20006;-66
2024/04/14 09:53:41;;;;;;;2.33;0.90;;;21.10;70.30;;;;;;5432637;26;20022;-66
2024/04/14 09:56:07;;;;;;;7.45;1.00;;;21.20;69.30;;;;;;5436956;26;20006;-66
2024/04/14 09:58:33;;;;;;;4.15;0.57;;;21.00;66.40;;;;;;5432682;26;19994;-66
2024/04/14 10:01:12;;;;;;;5.40;0.60;;;20.80;66.70;;;;;;5431953;26;20473;-66
2024/04/14 10:03:39;;;;;;;3.13;0.70;;;20.70;65.80;;;;;;5436574;26;19991;-66
2024/04/14 10:06:07;;;;;;;3.42;0.70;;;20.60;68.60;;;;;;5429739;26;19999;-67
2024/04/14 10:08:33;;;;;;;2.85;0.57;;;20.50;67.00;;;;;;5434370;26;19995;-67
2024/04/14 10:11:04;;;;;;;2.22;0.70;;;20.50;67.80;;;;;;5433320;26;19999;-67
2024/04/14 10:13:45;;;;;;;1.83;0.57;;;20.50;68.90;;;;;;5434325;26;20042;-66
2024/04/14 10:16:11;;;;;;;2.47;0.57;;;20.50;67.50;;;;;;5433029;26;20923;-67
2024/04/14 10:18:39;;;;;;;1.35;0.60;;;20.40;68.70;;;;;;5438936;26;19999;-66
2024/04/14 10:21:05;;;;;;;3.38;0.55;;;20.30;67.60;;;;;;5432364;26;19991;-67
2024/04/14 10:23:31;;;;;;;4.82;0.88;;;20.20;68.80;;;;;;5430003;26;19995;-66
2024/04/14 10:25:57;;;;;;;3.08;1.00;;;20.00;68.40;;;;;;5435023;26;20426;-66
2024/04/14 10:28:23;;;;;;;2.08;0.50;;;19.80;66.40;;;;;;5435888;26;20009;-66
2024/04/14 10:31:00;;;;;;;1.83;0.50;;;19.70;65.30;;;;;;5435385;26;19999;-66
2024/04/14 10:33:26;;;;;;;6.05;0.85;;;19.50;66.60;;;;;;5431333;26;19999;-67
2024/04/14 10:36:03;;;;;;;2.17;0.43;;;19.50;67.00;;;;;;5430951;26;20874;-67
2024/04/14 10:38:33;;;;;;;1.73;0.57;;;19.60;65.90;;;;;;5432158;26;19999;-67
2024/04/14 10:41:00;;;;;;;2.75;0.80;;;19.50;64.90;;;;;;5434761;26;20002;-65
2024/04/14 10:43:26;;;;;;;3.63;0.70;;;19.30;66.10;;;;;;5431417;26;20356;-66
2024/04/14 10:45:52;;;;;;;1.70;0.50;;;19.30;66.30;;;;;;5425646;26;19999;-66
2024/04/14 10:48:18;;;;;;;7.40;1.42;;;19.30;65.60;;;;;;5424246;26;20622;-66
2024/04/14 10:50:44;;;;;;;3.90;0.57;;;19.20;64.20;;;;;;5429500;26;19999;-66
2024/04/14 10:53:10;;;;;;;4.18;0.70;;;19.20;65.10;;;;;;5425210;26;20010;-65
2024/04/14 10:55:36;;;;;;;5.75;0.65;;;19.10;65.20;;;;;;5432111;26;20846;-65
2024/04/14 10:58:02;;;;;;;4.85;0.93;;;19.20;67.20;;;;;;5425206;26;20010;-66
2024/04/14 11:00:29;;;;;;;1.75;0.30;;;19.30;66.40;;;;;;5423573;26;20002;-66
2024/04/14 11:02:54;;;;;;;1.98;0.60;;;19.20;63.90;;;;;;5428085;26;19999;-66
2024/04/14 11:05:23;;;;;;;2.03;0.63;;;19.20;63.80;;;;;;5433625;26;20007;-66
2024/04/14 11:07:50;;;;;;;1.35;0.60;;;19.20;63.70;;;;;;5433457;26;20473;-66
2024/04/14 11:10:19;;;;;;;3.53;0.60;;;19.30;64.50;;;;;;5429569;26;19995;-66
2024/04/14 11:12:44;;;;;;;1.45;0.63;;;19.30;65.20;;;;;;5419997;26;20004;-69
2024/04/14 11:15:10;;;;;;;3.15;0.45;;;19.40;65.70;;;;;;5431053;26;19994;-69
2024/04/14 11:17:36;;;;;;;6.93;0.88;;;19.50;66.90;;;;;;5419616;26;20003;-68
2024/04/14 11:20:03;;;;;;;2.78;0.55;;;19.70;67.20;;;;;;5428438;26;20003;-69
2024/04/14 11:22:31;;;;;;;1.65;0.70;;;19.90;65.60;;;;;;5427852;26;19999;-69
2024/04/14 11:24:58;;;;;;;3.55;0.80;;;20.00;64.70;;;;;;5432446;26;20014;-69
2024/04/14 11:27:24;;;;;;;2.65;0.80;;;20.00;64.10;;;;;;5431949;26;19999;-68
2024/04/14 11:29:50;;;;;;;3.72;0.70;;;20.00;65.00;;;;;;5431419;26;20549;-68
2024/04/14 11:35:14;;;;;;;3.88;0.90;;;20.10;64.90;;;;;;5410214;26;19994;-68
2024/04/14 11:37:44;;;;;;;5.30;0.80;;;20.20;65.30;;;;;;5431509;26;20454;-68
2024/04/14 11:40:13;;;;;;;4.47;0.90;;;20.20;64.90;;;;;;5433411;26;20002;-69
2024/04/14 11:42:39;;;;;;;0.57;0.55;;;20.00;63.20;;;;;;5429463;26;20710;-69
2024/04/14 11:45:05;;;;;;;1.60;0.57;;;19.90;61.80;;;;;;5432093;26;20087;-68
2024/04/14 11:47:31;;;;;;;1.88;0.63;;;19.90;62.40;;;;;;5430782;26;19990;-69
2024/04/14 11:49:57;;;;;;;4.07;0.65;;;19.80;62.10;;;;;;5429089;26;20013;-69
2024/04/14 11:52:23;;;;;;;3.72;0.75;;;19.80;61.90;;;;;;5433004;26;20039;-68
2024/04/14 11:54:48;;;;;;;1.35;0.60;;;19.90;62.80;;;;;;5429084;26;20048;-69
2024/04/14 11:57:15;;;;;;;2.90;0.50;;;19.80;62.70;;;;;;5433803;26;19999;-68
2024/04/14 11:59:41;;;;;;;0.63;0.20;;;20.00;63.10;;;;;;5426864;26;19991;-69
2024/04/14 12:02:07;;;;;;;1.73;0.47;;;20.00;61.40;;;;;;5429049;26;20000;-69
2024/04/14 12:04:32;;;;;;;2.95;0.70;;;20.00;62.40;;;;;;5430018;26;19995;-69
2024/04/14 12:06:58;;;;;;;4.63;0.85;;;20.00;60.90;;;;;;5435881;26;20026;-68
2024/04/14 12:09:24;;;;;;;2.22;0.63;;;20.00;60.60;;;;;;5435916;26;20014;-69
2024/04/14 12:11:50;;;;;;;2.22;0.55;;;20.10;60.10;;;;;;5437170;26;19995;-70
2024/04/14 12:14:15;;;;;;;2.58;0.52;;;20.10;60.90;;;;;;5433530;26;20002;-69
2024/04/14 12:16:41;;;;;;;4.70;0.80;;;20.20;60.40;;;;;;5434696;26;20055;-69
2024/04/14 12:19:07;;;;;;;2.35;0.50;;;20.20;61.40;;;;;;5436382;26;19991;-68
2024/04/14 12:21:34;;;;;;;1.20;0.68;;;20.30;60.20;;;;;;5436242;26;20014;-68
2024/04/14 12:24:00;;;;;;;2.65;0.47;;;20.30;61.10;;;;;;5433268;26;19998;-67
2024/04/14 12:26:26;;;;;;;3.67;0.65;;;20.40;59.60;;;;;;5432870;26;20048;-67
2024/04/14 12:28:52;;;;;;;2.67;0.68;;;20.30;59.00;;;;;;5430231;26;20035;-68
2024/04/14 12:31:18;;;;;;;2.83;0.73;;;20.20;59.30;;;;;;5431299;26;20693;-67
2024/04/14 12:33:44;;;;;;;2.30;0.60;;;20.20;58.10;;;;;;5437095;26;20084;-68
2024/04/14 12:36:10;;;;;;;4.05;0.60;;;20.10;58.50;;;;;;5435883;26;20009;-68
2024/04/14 12:38:35;;;;;;;2.63;0.98;;;20.10;58.70;;;;;;5433645;26;20435;-68
2024/04/14 12:41:03;;;;;;;2.33;0.60;;;20.30;58.80;;;;;;5435139;26;20784;-68
2024/04/14 12:43:29;;;;;;;3.83;0.80;;;20.30;58.60;;;;;;5435566;26;19995;-68
2024/04/14 12:45:55;;;;;;;1.90;0.32;;;20.30;56.60;;;;;;5435367;26;20374;-68